Time;durP1;ratioP1;P1;durP2;ratioP2;P2;SDS_P1;SDS_P2;PMS_P1;PMS_P2;Temp;Humidity;BMP_temperature;BMP_pressure;BME280_temperature;BME280_humidity;BME280_pressure;Samples;Min_cycle;Max_cycle;Signal;HPM_P1;HPM_P2
2024/01/31 00:02:28;;;;;;;0.10;0.10;;;;;;;8.59;100.00;100689.31;5055207;28;20192;-53
2024/01/31 00:05:15;;;;;;;0.10;0.10;;;;;;;8.54;100.00;100672.75;5053514;28;20240;-53
2024/01/31 00:08:02;;;;;;;0.10;0.10;;;;;;;8.58;100.00;100692.84;5054696;28;20228;-53
2024/01/31 00:10:50;;;;;;;0.10;0.10;;;;;;;8.54;100.00;100689.44;5055044;28;20211;-53
2024/01/31 00:13:37;;;;;;;0.10;0.10;;;;;;;8.49;100.00;100688.75;5055005;28;20254;-52
2024/01/31 00:16:25;;;;;;;0.10;0.10;;;;;;;8.47;100.00;100692.31;5054908;28;20235;-53
2024/01/31 00:19:11;;;;;;;0.10;0.10;;;;;;;8.43;100.00;100686.28;5053513;28;20207;-53
2024/01/31 00:21:58;;;;;;;0.10;0.10;;;;;;;8.53;100.00;100682.44;5054828;28;20211;-53
2024/01/31 00:24:45;;;;;;;0.10;0.10;;;;;;;8.59;100.00;100684.91;5054805;28;20223;-53
2024/01/31 00:27:34;;;;;;;0.10;0.10;;;;;;;8.58;100.00;100677.00;5054557;28;20204;-53
2024/01/31 00:30:21;;;;;;;0.10;0.10;;;;;;;8.49;100.00;100683.47;5054358;28;20192;-53
2024/01/31 00:33:07;;;;;;;0.10;0.10;;;;;;;8.50;100.00;100669.34;5034659;28;20231;-53
2024/01/31 00:35:55;;;;;;;0.10;0.10;;;;;;;8.48;100.00;100670.28;5035940;28;20308;-53
2024/01/31 00:38:42;;;;;;;0.10;0.10;;;;;;;8.48;100.00;100675.56;5054579;28;20308;-53
2024/01/31 00:41:30;;;;;;;0.10;0.10;;;;;;;8.58;100.00;100671.72;5054404;28;20284;-53
2024/01/31 00:44:18;;;;;;;0.10;0.10;;;;;;;8.58;100.00;100667.31;5054526;28;20722;-53
2024/01/31 00:47:05;;;;;;;0.10;0.10;;;;;;;8.62;100.00;100668.09;5054358;28;20199;-53
2024/01/31 00:49:52;;;;;;;0.10;0.10;;;;;;;8.56;100.00;100665.63;5052646;28;20220;-52
2024/01/31 00:52:40;;;;;;;0.10;0.10;;;;;;;8.50;100.00;100664.06;5053768;28;20296;-52
2024/01/31 00:55:27;;;;;;;0.10;0.10;;;;;;;8.46;100.00;100667.69;5054246;28;20199;-52
2024/01/31 00:58:14;;;;;;;0.10;0.10;;;;;;;8.45;100.00;100659.81;5054185;28;20235;-52
2024/01/31 01:01:02;;;;;;;0.10;0.10;;;;;;;8.45;100.00;100662.47;5054144;28;20307;-53
2024/01/31 01:03:49;;;;;;;0.10;0.10;;;;;;;8.43;100.00;100665.16;5052564;28;20817;-52
2024/01/31 01:06:36;;;;;;;0.10;0.10;;;;;;;8.43;100.00;100667.81;5054040;28;20196;-52
2024/01/31 01:09:23;;;;;;;0.10;0.10;;;;;;;8.37;100.00;100662.69;5053699;28;20274;-53
2024/01/31 01:12:09;;;;;;;0.10;0.10;;;;;;;8.37;100.00;100667.97;5053002;28;20220;-52
2024/01/31 01:14:57;;;;;;;0.10;0.10;;;;;;;8.40;100.00;100674.97;5053939;28;20200;-52
2024/01/31 01:17:59;;;;;;;0.10;0.10;;;;;;;8.30;100.00;100671.72;5053760;28;20260;-53
2024/01/31 01:20:46;;;;;;;0.10;0.10;;;;;;;8.30;100.00;100664.66;5052473;28;20200;-53
2024/01/31 01:23:33;;;;;;;0.10;0.10;;;;;;;8.30;100.00;100671.72;5053489;28;20195;-53
2024/01/31 01:26:20;;;;;;;0.10;0.10;;;;;;;8.32;100.00;100665.47;5053428;28;20208;-53
2024/01/31 01:29:07;;;;;;;0.10;0.10;;;;;;;8.34;100.00;100662.78;5053368;28;20220;-53
2024/01/31 01:31:53;;;;;;;0.10;0.10;;;;;;;8.28;100.00;100676.16;5053373;28;20200;-53
2024/01/31 01:34:43;;;;;;;0.10;0.10;;;;;;;8.36;100.00;100674.16;5052293;28;20367;-52
2024/01/31 01:37:30;;;;;;;0.10;0.10;;;;;;;8.33;100.00;100669.81;5053335;28;20196;-53
2024/01/31 01:40:17;;;;;;;0.10;0.10;;;;;;;8.27;100.00;100672.63;5053112;28;20323;-53
2024/01/31 01:43:15;;;;;;;0.10;0.10;;;;;;;8.28;100.00;100677.00;5053318;28;20355;-53
2024/01/31 01:46:10;;;;;;;0.10;0.10;;;;;;;8.23;100.00;100678.94;5053248;28;20262;-52
2024/01/31 01:48:57;;;;;;;0.00;0.00;;;;;;;8.16;100.00;100680.03;5051826;28;20334;-52
2024/01/31 01:51:46;;;;;;;0.10;0.10;;;;;;;8.15;100.00;100672.16;5053194;28;20188;-53
2024/01/31 01:54:33;;;;;;;0.10;0.10;;;;;;;8.13;100.00;100676.63;5052796;28;20203;-53
2024/01/31 01:57:20;;;;;;;0.10;0.10;;;;;;;8.09;100.00;100669.69;5053031;28;20208;-53
2024/01/31 02:00:10;;;;;;;0.10;0.10;;;;;;;8.10;100.00;100668.78;5053048;28;20200;-52
2024/01/31 02:02:56;;;;;;;0.10;0.10;;;;;;;8.04;100.00;100668.06;5052918;28;20196;-53
2024/01/31 02:05:46;;;;;;;0.10;0.10;;;;;;;7.98;100.00;100667.38;5051649;28;20262;-53
2024/01/31 02:08:34;;;;;;;0.10;0.10;;;;;;;7.86;100.00;100667.72;5032971;28;20212;-52
2024/01/31 02:11:21;;;;;;;0.10;0.10;;;;;;;7.82;100.00;100668.72;5032792;28;20313;-52
2024/01/31 02:14:08;;;;;;;0.10;0.10;;;;;;;7.76;100.00;100675.03;5032889;28;20672;-52
2024/01/31 02:16:57;;;;;;;0.10;0.10;;;;;;;7.78;100.00;100675.84;5041364;28;20208;-53
2024/01/31 02:19:44;;;;;;;0.10;0.10;;;;;;;7.78;100.00;100673.22;5051357;28;20192;-53
2024/01/31 02:22:32;;;;;;;0.10;0.10;;;;;;;7.71;100.00;100675.16;5052773;28;20196;-53
2024/01/31 02:25:19;;;;;;;0.10;0.10;;;;;;;7.71;100.00;100676.91;5052838;28;20191;-52
2024/01/31 02:28:06;;;;;;;0.10;0.10;;;;;;;7.86;100.00;100671.22;5052637;28;20274;-52
2024/01/31 02:30:53;;;;;;;0.10;0.10;;;;;;;7.87;100.00;100665.03;5052263;28;20292;-53
2024/01/31 02:33:40;;;;;;;0.10;0.10;;;;;;;7.92;100.00;100664.91;5051349;28;20199;-52
2024/01/31 02:36:27;;;;;;;0.10;0.10;;;;;;;7.79;100.00;100663.53;5037309;28;20203;-51
2024/01/31 02:39:15;;;;;;;0.10;0.10;;;;;;;7.76;100.00;100669.75;5052807;28;20195;-53
2024/01/31 02:42:02;;;;;;;0.10;0.10;;;;;;;7.75;100.00;100671.53;5037530;28;20251;-53
2024/01/31 02:44:49;;;;;;;0.10;0.10;;;;;;;7.81;100.00;100672.25;5052403;28;20192;-53
2024/01/31 02:47:36;;;;;;;0.10;0.10;;;;;;;7.74;100.00;100674.22;5052622;28;20195;-52
2024/01/31 02:50:25;;;;;;;0.10;0.10;;;;;;;7.80;100.00;100675.81;5050884;28;20220;-53
2024/01/31 02:53:12;;;;;;;0.10;0.10;;;;;;;7.77;100.00;100674.13;5052342;28;20192;-52
2024/01/31 02:56:00;;;;;;;0.10;0.10;;;;;;;7.72;100.00;100676.91;5052359;28;20211;-53
2024/01/31 02:58:47;;;;;;;0.10;0.10;;;;;;;7.63;100.00;100678.94;5052579;28;20195;-52
2024/01/31 03:01:36;;;;;;;0.10;0.10;;;;;;;7.72;100.00;100684.81;5051612;28;20234;-52
2024/01/31 03:04:22;;;;;;;0.10;0.10;;;;;;;7.69;100.00;100686.66;5050807;28;20228;-53
2024/01/31 03:07:10;;;;;;;0.10;0.10;;;;;;;7.75;100.00;100681.22;5052377;28;20302;-53
2024/01/31 03:09:57;;;;;;;0.10;0.10;;;;;;;7.68;100.00;100687.56;5051971;28;20270;-53
2024/01/31 03:12:45;;;;;;;0.10;0.10;;;;;;;7.68;100.00;100695.47;5052541;28;20262;-53
2024/01/31 03:15:32;;;;;;;0.10;0.10;;;;;;;7.74;100.00;100693.53;5052266;28;20671;-53
2024/01/31 03:18:19;;;;;;;0.10;0.10;;;;;;;7.89;100.00;100697.50;5052036;28;20195;-52
2024/01/31 03:21:07;;;;;;;0.10;0.10;;;;;;;7.86;100.00;100709.94;5052278;28;20231;-52
2024/01/31 03:23:54;;;;;;;0.10;0.10;;;;;;;7.73;100.00;100706.78;5052359;28;20216;-53
2024/01/31 03:26:41;;;;;;;0.10;0.10;;;;;;;7.71;100.00;100704.16;5051951;28;20283;-53
2024/01/31 03:29:28;;;;;;;0.10;0.10;;;;;;;7.60;100.00;100719.41;5051962;28;20216;-52
2024/01/31 03:32:15;;;;;;;0.10;0.10;;;;;;;7.59;100.00;100722.97;5052201;28;20276;-53
2024/01/31 03:35:02;;;;;;;0.10;0.10;;;;;;;7.70;100.00;100725.31;5051419;28;20623;-53
2024/01/31 03:37:49;;;;;;;0.10;0.10;;;;;;;7.76;100.00;100722.50;5055688;28;20200;-52
2024/01/31 03:40:37;;;;;;;0.10;0.10;;;;;;;7.62;100.00;100730.78;5055635;28;20184;-53
2024/01/31 03:43:23;;;;;;;0.10;0.10;;;;;;;7.88;100.00;100722.16;5055545;28;20243;-52
2024/01/31 03:46:13;;;;;;;0.10;0.10;;;;;;;7.78;100.00;100728.59;5055552;28;20188;-53
2024/01/31 03:49:00;;;;;;;0.10;0.10;;;;;;;7.82;100.00;100730.25;5054171;28;20311;-53
2024/01/31 03:51:48;;;;;;;0.10;0.10;;;;;;;7.63;100.00;100729.03;5055413;28;20196;-52
2024/01/31 03:54:35;;;;;;;0.10;0.10;;;;;;;7.62;100.00;100737.81;5055322;28;20208;-53
2024/01/31 03:57:22;;;;;;;0.10;0.10;;;;;;;7.53;100.00;100744.22;5055085;28;20314;-52
2024/01/31 04:00:09;;;;;;;0.10;0.10;;;;;;;7.62;100.00;100743.97;5055252;28;20263;-53
2024/01/31 04:02:58;;;;;;;0.10;0.10;;;;;;;7.79;100.00;100740.00;5055214;28;20187;-52
2024/01/31 04:05:45;;;;;;;0.10;0.10;;;;;;;7.63;100.00;100737.81;5053877;28;20212;-52
2024/01/31 04:08:31;;;;;;;0.10;0.10;;;;;;;7.69;100.00;100736.75;5035082;28;20704;-53
2024/01/31 04:11:18;;;;;;;0.10;0.10;;;;;;;7.71;100.00;100741.06;5034918;28;20217;-53
2024/01/31 04:14:05;;;;;;;0.10;0.10;;;;;;;7.73;100.00;100734.00;5035109;28;20259;-52
2024/01/31 04:16:52;;;;;;;0.10;0.10;;;;;;;7.64;100.00;100736.03;5041098;28;20387;-52
2024/01/31 04:19:44;;;;;;;0.10;0.10;;;;;;;7.65;100.00;100733.34;5053640;28;20196;-52
2024/01/31 04:22:31;;;;;;;0.10;0.10;;;;;;;7.72;100.00;100734.94;5054956;28;20644;-53
2024/01/31 04:25:18;;;;;;;0.10;0.10;;;;;;;7.77;100.00;100739.19;5054917;28;20212;-53
2024/01/31 04:28:05;;;;;;;0.10;0.10;;;;;;;7.66;100.00;100736.84;5054678;28;20196;-53
2024/01/31 04:30:52;;;;;;;0.10;0.10;;;;;;;7.73;100.00;100741.06;5054536;28;20212;-53
2024/01/31 04:33:39;;;;;;;0.10;0.10;;;;;;;7.66;100.00;100748.25;5053321;28;20212;-53
2024/01/31 04:36:28;;;;;;;0.10;0.10;;;;;;;7.85;100.00;100742.50;5054413;28;20612;-53
2024/01/31 04:39:15;;;;;;;0.10;0.10;;;;;;;7.71;100.00;100743.72;5054601;28;20220;-53
2024/01/31 04:42:02;;;;;;;0.10;0.10;;;;;;;7.63;100.00;100743.09;5054412;28;20196;-53
2024/01/31 04:44:48;;;;;;;0.10;0.10;;;;;;;7.67;100.00;100750.00;5054355;28;20199;-53
2024/01/31 04:47:35;;;;;;;0.10;0.10;;;;;;;7.59;100.00;100741.41;5054265;28;20200;-53
2024/01/31 04:50:22;;;;;;;0.10;0.10;;;;;;;7.55;100.00;100742.41;5052879;28;20294;-52
2024/01/31 04:53:11;;;;;;;0.10;0.10;;;;;;;7.57;100.00;100743.22;5054414;28;20192;-52
2024/01/31 04:55:58;;;;;;;0.10;0.10;;;;;;;7.79;100.00;100747.94;5053546;28;20204;-53
2024/01/31 04:58:44;;;;;;;0.10;0.10;;;;;;;7.67;100.00;100746.50;5054212;28;20243;-52
2024/01/31 05:01:31;;;;;;;0.10;0.10;;;;;;;7.62;100.00;100751.88;5054246;28;20188;-52
2024/01/31 05:04:18;;;;;;;0.10;0.10;;;;;;;7.62;100.00;100749.22;5052506;28;20582;-53
2024/01/31 05:07:05;;;;;;;0.10;0.10;;;;;;;7.67;100.00;100762.31;5053917;28;20200;-53
2024/01/31 05:09:53;;;;;;;0.10;0.10;;;;;;;7.74;100.00;100754.22;5053766;28;20192;-53
2024/01/31 05:12:40;;;;;;;0.10;0.10;;;;;;;7.71;100.00;100746.34;5053941;28;20212;-53
2024/01/31 05:15:28;;;;;;;0.10;0.10;;;;;;;7.92;100.00;100749.34;5053880;28;20678;-52
2024/01/31 05:18:14;;;;;;;0.10;0.10;;;;;;;7.74;100.00;100746.28;5053847;28;20208;-52
2024/01/31 05:21:01;;;;;;;0.10;0.10;;;;;;;7.62;100.00;100737.81;5053788;28;20188;-53
2024/01/31 05:23:48;;;;;;;0.10;0.10;;;;;;;7.71;100.00;100730.53;5053793;28;20215;-52
2024/01/31 05:26:36;;;;;;;0.10;0.10;;;;;;;7.53;100.00;100725.78;5053654;28;20204;-53
2024/01/31 05:29:23;;;;;;;0.10;0.10;;;;;;;7.53;100.00;100720.50;5053732;28;20196;-53
2024/01/31 05:32:10;;;;;;;0.10;0.10;;;;;;;7.42;100.00;100709.34;5053263;28;20219;-53
2024/01/31 05:34:57;;;;;;;0.10;0.10;;;;;;;7.41;100.00;100704.97;5052304;28;20196;-53
2024/01/31 05:37:44;;;;;;;0.10;0.10;;;;;;;7.31;100.00;100712.25;5053454;28;20314;-53
2024/01/31 05:40:31;;;;;;;0.10;0.10;;;;;;;7.37;100.00;100701.56;5053486;28;20194;-53
2024/01/31 05:43:20;;;;;;;0.10;0.10;;;;;;;7.06;100.00;100709.41;5053331;28;20195;-52
2024/01/31 05:46:07;;;;;;;0.10;0.10;;;;;;;7.27;100.00;100707.13;5053314;28;20236;-53
2024/01/31 05:48:53;;;;;;;0.10;0.10;;;;;;;7.03;100.00;100708.59;5032171;28;20252;-53
2024/01/31 05:51:40;;;;;;;0.10;0.10;;;;;;;7.22;100.00;100709.00;5033137;28;20217;-53
2024/01/31 05:54:27;;;;;;;0.10;0.10;;;;;;;7.04;100.00;100713.81;5033332;28;20280;-53
2024/01/31 05:57:14;;;;;;;0.10;0.10;;;;;;;7.13;100.00;100710.94;5040903;28;20239;-53
2024/01/31 06:00:07;;;;;;;0.10;0.10;;;;;;;7.46;100.00;100718.91;5052747;28;20391;-53
2024/01/31 06:02:58;;;;;;;0.10;0.10;;;;;;;7.26;100.00;100718.56;5037746;28;20196;-53
2024/01/31 06:05:46;;;;;;;0.10;0.10;;;;;;;7.05;100.00;100726.09;5052674;28;20192;-52
2024/01/31 06:08:33;;;;;;;0.10;0.10;;;;;;;7.20;100.00;100726.63;5052948;28;20196;-52
2024/01/31 06:11:20;;;;;;;0.10;0.10;;;;;;;7.24;100.00;100736.16;5052490;28;20235;-53
2024/01/31 06:14:07;;;;;;;0.10;0.10;;;;;;;7.20;100.00;100742.44;5052755;28;20199;-53
2024/01/31 06:16:55;;;;;;;0.10;0.10;;;;;;;7.21;100.00;100745.03;5052807;28;20192;-52
2024/01/31 06:19:42;;;;;;;0.10;0.10;;;;;;;7.34;100.00;100741.19;5051199;28;20247;-53
2024/01/31 06:22:29;;;;;;;0.10;0.10;;;;;;;7.29;100.00;100750.09;5052775;28;20189;-53
2024/01/31 06:25:16;;;;;;;0.10;0.10;;;;;;;7.35;100.00;100760.50;5052730;28;20195;-53
2024/01/31 06:28:03;;;;;;;0.10;0.10;;;;;;;7.34;100.00;100751.75;5052127;28;20212;-53
2024/01/31 06:30:58;;;;;;;0.10;0.10;;;;;;;7.35;100.00;100755.25;5052378;28;20284;-53
2024/01/31 06:33:47;;;;;;;0.10;0.10;;;;;;;7.50;100.00;100765.38;5051450;28;20196;-52
2024/01/31 06:36:34;;;;;;;0.10;0.10;;;;;;;7.33;100.00;100760.53;5052464;28;20204;-53
2024/01/31 06:39:21;;;;;;;0.10;0.10;;;;;;;7.37;100.00;100767.47;5052726;28;20188;-53
2024/01/31 06:42:08;;;;;;;0.10;0.10;;;;;;;7.35;100.00;100761.38;5052655;28;20196;-52
2024/01/31 06:44:54;;;;;;;0.10;0.10;;;;;;;7.42;100.00;100762.94;5052566;28;20192;-53
2024/01/31 06:47:42;;;;;;;0.10;0.10;;;;;;;7.18;100.00;100761.78;5052467;28;20319;-53
2024/01/31 06:50:30;;;;;;;0.10;0.10;;;;;;;7.23;100.00;100761.66;5049633;28;20216;-53
2024/01/31 06:53:17;;;;;;;0.10;0.10;;;;;;;7.36;100.00;100763.09;5052237;28;20216;-53
2024/01/31 06:56:04;;;;;;;0.10;0.10;;;;;;;7.37;100.00;100763.97;5052586;28;20200;-53
2024/01/31 06:58:52;;;;;;;0.10;0.10;;;;;;;7.48;100.00;100767.19;5032603;28;20205;-53
2024/01/31 07:01:43;;;;;;;0.10;0.10;;;;;;;7.53;100.00;100769.69;5032557;28;20189;-53
2024/01/31 07:04:30;;;;;;;0.10;0.10;;;;;;;7.28;100.00;100775.59;5030923;28;20364;-53
2024/01/31 07:07:18;;;;;;;0.10;0.10;;;;;;;7.26;100.00;100774.78;5039472;28;20212;-53
2024/01/31 07:10:07;;;;;;;0.10;0.10;;;;;;;7.26;100.00;100785.31;5053037;28;20304;-53
2024/01/31 07:12:53;;;;;;;0.10;0.10;;;;;;;7.29;100.00;100785.25;5055927;28;20343;-53
2024/01/31 07:15:40;;;;;;;0.10;0.10;;;;;;;7.53;100.00;100789.06;5056206;28;20643;-53
2024/01/31 07:18:27;;;;;;;0.10;0.10;;;;;;;7.63;100.00;100785.28;5054767;28;20188;-53
2024/01/31 07:21:24;;;;;;;0.10;0.10;;;;;;;7.88;100.00;100788.13;5056080;28;20193;-53
2024/01/31 07:24:12;;;;;;;0.10;0.10;;;;;;;7.85;100.00;100782.94;5055985;28;20200;-53
2024/01/31 07:27:13;;;;;;;0.10;0.10;;;;;;;7.72;100.00;100785.03;5055935;28;20247;-53
2024/01/31 07:30:00;;;;;;;0.10;0.10;;;;;;;7.79;100.00;100792.78;5055936;28;20242;-53
2024/01/31 07:32:47;;;;;;;0.10;0.10;;;;;;;7.79;100.00;100780.44;5055298;28;20220;-53
2024/01/31 07:35:35;;;;;;;0.10;0.10;;;;;;;7.82;100.00;100776.88;5054518;28;20542;-53
2024/01/31 07:38:22;;;;;;;0.10;0.10;;;;;;;7.85;100.00;100780.28;5055775;28;20204;-52
2024/01/31 07:41:10;;;;;;;0.10;0.10;;;;;;;7.61;100.00;100787.06;5055500;28;20682;-53
2024/01/31 07:43:56;;;;;;;0.10;0.10;;;;;;;7.69;100.00;100782.47;5055612;28;20184;-52
2024/01/31 07:46:43;;;;;;;0.10;0.10;;;;;;;7.38;100.00;100779.75;5055264;28;20267;-53
2024/01/31 07:49:30;;;;;;;0.10;0.10;;;;;;;7.49;100.00;100781.25;5054114;28;20239;-53
2024/01/31 07:52:17;;;;;;;0.10;0.10;;;;;;;7.35;100.00;100785.09;5054944;28;20220;-53
2024/01/31 07:55:07;;;;;;;0.10;0.10;;;;;;;7.33;100.00;100780.75;5055273;28;20239;-54
2024/01/31 07:57:55;;;;;;;0.10;0.10;;;;;;;7.39;100.00;100784.09;5055045;28;20262;-53
2024/01/31 08:00:42;;;;;;;0.10;0.10;;;;;;;7.46;100.00;100783.06;5055322;28;20203;-53
2024/01/31 08:03:30;;;;;;;0.10;0.10;;;;;;;7.55;100.00;100767.91;5053753;28;20247;-53
2024/01/31 08:06:17;;;;;;;0.10;0.10;;;;;;;7.72;100.00;100782.41;5054958;28;20262;-53
2024/01/31 08:09:04;;;;;;;0.10;0.10;;;;;;;7.61;100.00;100779.16;5035204;28;20263;-52
2024/01/31 08:12:05;;;;;;;0.10;0.10;;;;;;;7.57;100.00;100780.16;5034944;28;20221;-53
2024/01/31 08:14:53;;;;;;;0.10;0.10;;;;;;;7.65;100.00;100780.81;5035206;28;20236;-53
2024/01/31 08:17:40;;;;;;;0.10;0.10;;;;;;;7.92;100.00;100791.56;5044182;28;20213;-53
2024/01/31 08:20:26;;;;;;;0.10;0.10;;;;;;;7.73;100.00;100788.53;5053481;28;20304;-53
2024/01/31 08:23:13;;;;;;;0.10;0.10;;;;;;;8.02;100.00;100786.00;5054503;28;20200;-53
2024/01/31 08:26:00;;;;;;;0.10;0.10;;;;;;;7.94;100.00;100780.03;5054753;28;20223;-53
2024/01/31 08:28:47;;;;;;;0.10;0.10;;;;;;;7.83;100.00;100782.13;5054298;28;20203;-52
2024/01/31 08:31:40;;;;;;;0.10;0.10;;;;;;;7.80;100.00;100779.53;5054657;28;20204;-53
2024/01/31 08:34:27;;;;;;;0.10;0.10;;;;;;;7.79;100.00;100779.59;5053342;28;20216;-52
2024/01/31 08:37:19;;;;;;;0.10;0.10;;;;;;;7.78;100.00;100768.16;5054504;28;20200;-53
2024/01/31 08:40:07;;;;;;;0.10;0.10;;;;;;;7.87;100.00;100777.59;5054093;28;20196;-52
2024/01/31 08:42:58;;;;;;;0.10;0.10;;;;;;;8.02;100.00;100774.56;5054667;28;20188;-52
2024/01/31 08:45:45;;;;;;;0.10;0.10;;;;;;;8.18;100.00;100770.56;5054606;28;20548;-53
2024/01/31 08:48:33;;;;;;;0.10;0.10;;;;;;;8.11;100.00;100774.31;5052438;28;20195;-53
2024/01/31 08:51:20;;;;;;;0.10;0.10;;;;;;;8.07;100.00;100775.28;5054321;28;20212;-52
2024/01/31 08:54:07;;;;;;;0.10;0.10;;;;;;;8.19;100.00;100777.56;5054205;28;20352;-53
2024/01/31 08:56:55;;;;;;;0.10;0.10;;;;;;;8.30;100.00;100779.94;5054227;28;20690;-53
2024/01/31 08:59:42;;;;;;;0.10;0.10;;;;;;;8.15;100.00;100775.94;5054282;28;20204;-53
2024/01/31 09:02:29;;;;;;;0.10;0.10;;;;;;;8.18;100.00;100782.91;5054049;28;20215;-53
2024/01/31 09:05:18;;;;;;;0.10;0.10;;;;;;;8.11;100.00;100784.88;5052405;28;20339;-53
2024/01/31 09:08:05;;;;;;;0.10;0.10;;;;;;;8.54;100.00;100784.53;5053905;28;20191;-52
2024/01/31 09:10:52;;;;;;;0.10;0.10;;;;;;;8.56;100.00;100784.47;5053845;28;20197;-53
2024/01/31 09:13:44;;;;;;;0.10;0.10;;;;;;;8.71;100.00;100780.53;5038593;28;20234;-53
2024/01/31 09:16:33;;;;;;;0.10;0.10;;;;;;;8.72;100.00;100784.91;5054018;28;20271;-53
2024/01/31 09:19:20;;;;;;;0.10;0.10;;;;;;;8.74;100.00;100781.28;5032639;28;20205;-53
2024/01/31 09:22:08;;;;;;;0.10;0.10;;;;;;;8.79;100.00;100778.53;5033840;28;20265;-53
2024/01/31 09:24:55;;;;;;;0.10;0.10;;;;;;;8.75;100.00;100771.59;5033818;28;20212;-53
2024/01/31 09:27:42;;;;;;;0.10;0.10;;;;;;;8.49;100.00;100773.25;5041946;28;20323;-52
2024/01/31 09:30:29;;;;;;;0.10;0.10;;;;;;;8.50;100.00;100768.84;5053670;28;20188;-53
2024/01/31 09:33:16;;;;;;;0.10;0.10;;;;;;;8.63;100.00;100775.47;5051695;28;20223;-53
2024/01/31 09:36:02;;;;;;;0.10;0.10;;;;;;;8.53;100.00;100777.53;5053279;28;20197;-53
2024/01/31 09:38:51;;;;;;;0.10;0.10;;;;;;;8.66;100.00;100775.38;5053417;28;20678;-53
2024/01/31 09:41:38;;;;;;;0.10;0.10;;;;;;;8.71;100.00;100780.53;5053403;28;20283;-53
2024/01/31 09:44:26;;;;;;;0.10;0.10;;;;;;;8.66;100.00;100770.09;5053229;28;20212;-53
2024/01/31 09:47:14;;;;;;;0.10;0.10;;;;;;;8.56;100.00;100776.56;5053115;28;20220;-53
2024/01/31 09:50:02;;;;;;;0.10;0.10;;;;;;;8.80;100.00;100770.53;5052075;28;20204;-52
2024/01/31 09:52:52;;;;;;;0.10;0.10;;;;;;;8.67;100.00;100779.72;5053071;28;20207;-53
2024/01/31 09:55:43;;;;;;;0.10;0.10;;;;;;;8.86;100.00;100780.03;5038022;28;20200;-52
2024/01/31 09:58:30;;;;;;;0.10;0.10;;;;;;;8.79;100.00;100789.09;5053021;28;20199;-53
2024/01/31 10:01:20;;;;;;;0.10;0.10;;;;;;;8.66;100.00;100785.94;5053133;28;20691;-53
2024/01/31 10:04:18;;;;;;;0.10;0.10;;;;;;;8.52;100.00;100778.44;5051569;28;20224;-53
2024/01/31 10:07:16;;;;;;;0.10;0.10;;;;;;;8.70;100.00;100777.03;5052977;28;20208;-53
2024/01/31 10:10:03;;;;;;;0.10;0.10;;;;;;;8.39;100.00;100779.69;5052700;28;20203;-53
2024/01/31 10:12:51;;;;;;;0.10;0.10;;;;;;;8.52;100.00;100785.50;5052869;28;20311;-52
2024/01/31 10:15:38;;;;;;;0.10;0.10;;;;;;;8.63;100.00;100788.69;5037616;28;20204;-53
2024/01/31 10:18:27;;;;;;;0.10;0.10;;;;;;;8.71;100.00;100789.31;5051467;28;20196;-53
2024/01/31 10:21:19;;;;;;;0.10;0.10;;;;;;;8.71;100.00;100775.25;5052875;28;20226;-53
2024/01/31 10:24:09;;;;;;;0.10;0.10;;;;;;;8.50;100.00;100772.34;5054193;28;20184;-52
2024/01/31 10:26:58;;;;;;;0.10;0.10;;;;;;;8.59;100.00;100781.78;5053954;28;20218;-52
2024/01/31 10:29:46;;;;;;;0.10;0.10;;;;;;;8.41;100.00;100780.53;5052705;28;20196;-53
2024/01/31 10:32:35;;;;;;;0.10;0.10;;;;;;;8.57;100.00;100787.06;5052715;28;20235;-53
2024/01/31 10:35:22;;;;;;;0.10;0.10;;;;;;;8.60;100.00;100789.66;5051125;28;20263;-53
2024/01/31 10:38:29;;;;;;;0.10;0.10;;;;;;;8.51;100.00;100792.56;5052831;28;20196;-53
2024/01/31 10:41:19;;;;;;;0.10;0.10;;;;;;;8.55;100.00;100799.47;5052346;28;20195;-53
2024/01/31 10:44:10;;;;;;;0.10;0.10;;;;;;;8.64;100.00;100794.81;5053217;28;20239;-53
2024/01/31 10:46:59;;;;;;;0.10;0.10;;;;;;;8.70;100.00;100798.16;5056637;28;20706;-53
2024/01/31 10:49:45;;;;;;;0.10;0.10;;;;;;;8.54;100.00;100799.50;5055234;28;20756;-52
2024/01/31 10:52:36;;;;;;;0.10;0.10;;;;;;;8.45;100.00;100800.63;5056446;28;20196;-53
2024/01/31 10:55:24;;;;;;;0.10;0.10;;;;;;;8.44;100.00;100795.41;5056467;28;20247;-53
2024/01/31 10:58:12;;;;;;;0.10;0.10;;;;;;;8.63;100.00;100796.59;5055788;28;20203;-52
2024/01/31 11:01:03;;;;;;;0.10;0.10;;;;;;;8.58;100.00;100793.22;5056321;28;20195;-53
2024/01/31 11:03:51;;;;;;;0.10;0.10;;;;;;;8.68;100.00;100794.66;5054835;28;20741;-53
2024/01/31 11:06:41;;;;;;;0.10;0.10;;;;;;;8.82;100.00;100783.72;5056496;28;20228;-54
2024/01/31 11:09:29;;;;;;;0.10;0.10;;;;;;;8.77;100.00;100778.53;5036448;28;20197;-53
2024/01/31 11:12:17;;;;;;;0.10;0.10;;;;;;;8.66;100.00;100772.72;5036266;28;20205;-53
2024/01/31 11:15:06;;;;;;;0.10;0.10;;;;;;;8.64;100.00;100768.41;5036300;28;20197;-53
2024/01/31 11:18:05;;;;;;;0.10;0.10;;;;;;;8.63;100.00;100769.31;5044368;28;20200;-53
2024/01/31 11:20:53;;;;;;;0.10;0.10;;;;;;;8.77;100.00;100757.41;5056104;28;20196;-53
2024/01/31 11:23:40;;;;;;;0.10;0.10;;;;;;;8.79;100.00;100750.31;5055437;28;20192;-53
2024/01/31 11:26:31;;;;;;;0.10;0.10;;;;;;;8.89;100.00;100749.13;5055446;28;20208;-53
2024/01/31 11:29:18;;;;;;;0.10;0.10;;;;;;;8.89;100.00;100741.19;5055840;28;20201;-52
2024/01/31 11:32:06;;;;;;;0.10;0.10;;;;;;;8.98;100.00;100732.13;5040810;28;20192;-53
2024/01/31 11:35:00;;;;;;;0.10;0.10;;;;;;;8.87;100.00;100728.91;5054035;28;20223;-53
2024/01/31 11:37:49;;;;;;;0.10;0.10;;;;;;;8.63;100.00;100725.28;5055777;28;20208;-53
2024/01/31 11:40:36;;;;;;;0.10;0.10;;;;;;;8.64;100.00;100719.09;5055306;28;20207;-53
2024/01/31 11:43:23;;;;;;;0.10;0.10;;;;;;;8.74;100.00;100722.31;5055450;28;20258;-53
2024/01/31 11:46:11;;;;;;;0.10;0.10;;;;;;;8.70;100.00;100713.63;5055752;28;20188;-53
2024/01/31 11:48:57;;;;;;;0.10;0.10;;;;;;;8.56;100.00;100705.25;5054204;28;20276;-53
2024/01/31 11:51:44;;;;;;;0.10;0.10;;;;;;;8.98;100.00;100710.97;5055398;28;20203;-53
2024/01/31 11:54:33;;;;;;;0.10;0.10;;;;;;;8.68;100.00;100691.66;5055339;28;20262;-53
2024/01/31 11:57:20;;;;;;;0.10;0.10;;;;;;;8.40;100.00;100689.03;5054559;28;20196;-53
2024/01/31 12:00:07;;;;;;;0.10;0.10;;;;;;;8.74;100.00;100682.69;5055391;28;20204;-53
2024/01/31 12:02:58;;;;;;;0.10;0.10;;;;;;;8.77;100.00;100686.06;5055019;28;20647;-52
2024/01/31 12:05:44;;;;;;;0.10;0.10;;;;;;;8.58;100.00;100683.16;5054643;28;20204;-53
2024/01/31 12:08:32;;;;;;;0.10;0.10;;;;;;;8.94;100.00;100679.38;5055116;28;20204;-52
2024/01/31 12:11:21;;;;;;;0.10;0.10;;;;;;;8.80;100.00;100669.28;5054875;28;20192;-52
2024/01/31 12:14:08;;;;;;;0.10;0.10;;;;;;;8.60;100.00;100662.00;5054912;28;20216;-52
2024/01/31 12:16:55;;;;;;;0.10;0.10;;;;;;;8.63;100.00;100648.69;5054754;28;20212;-53
2024/01/31 12:19:41;;;;;;;0.10;0.10;;;;;;;8.68;100.00;100653.81;5033696;28;20740;-53
2024/01/31 12:22:28;;;;;;;0.10;0.10;;;;;;;8.50;100.00;100650.88;5034977;28;20200;-52
2024/01/31 12:25:16;;;;;;;0.10;0.10;;;;;;;8.59;100.00;100653.22;5035098;28;20196;-52
2024/01/31 12:28:05;;;;;;;0.10;0.10;;;;;;;8.38;100.00;100650.34;5043374;28;20263;-52
2024/01/31 12:30:52;;;;;;;0.10;0.10;;;;;;;8.32;100.00;100640.84;5054755;28;20188;-53
2024/01/31 12:33:39;;;;;;;0.10;0.10;;;;;;;8.58;100.00;100634.75;5053478;28;20204;-53
2024/01/31 12:36:26;;;;;;;0.00;0.00;;;;;;;8.49;100.00;100633.28;5054772;28;20188;-53
2024/01/31 12:39:17;;;;;;;0.10;0.10;;;;;;;8.69;100.00;100631.78;5054661;28;20203;-52
2024/01/31 12:42:06;;;;;;;0.10;0.10;;;;;;;8.50;100.00;100626.22;5054428;28;20195;-53
2024/01/31 12:44:55;;;;;;;0.10;0.10;;;;;;;8.44;100.00;100613.22;5039430;28;20251;-53
2024/01/31 12:47:42;;;;;;;0.10;0.10;;;;;;;8.39;100.00;100615.13;5054202;28;20227;-53
2024/01/31 12:50:30;;;;;;;0.10;0.10;;;;;;;8.31;100.00;100608.28;5052733;28;20686;-52
2024/01/31 12:53:17;;;;;;;0.10;0.10;;;;;;;8.45;100.00;100597.31;5053885;28;20226;-52
2024/01/31 12:56:04;;;;;;;0.07;0.07;;;;;;;8.26;100.00;100588.22;5054326;28;20274;-52
2024/01/31 12:58:51;;;;;;;0.10;0.10;;;;;;;8.25;100.00;100586.50;5054283;28;20191;-53
2024/01/31 13:01:39;;;;;;;0.10;0.10;;;;;;;8.45;100.00;100583.25;5054233;28;20200;-52